• Join FlightAware (Why Join?)
  • Login
  • US Flag 
06:26AM EST


 

Airport Tracker/Info


-or-


 

Live Flight TrackerFlight Track Log ✈ SWA554 ✈ 09-Apr-2013 ✈ KMKE - KBWI

Flight Track Log - Related Links

Times and Time Zones

All times are in EDT time to prevent confusion due to time zone crossing. See the SWA554 flight status page for this flight to view local times or setup timezone preferences in your user account.

Time Position Orientation Groundspeed Altitude Reporting Facility
EDT Latitude Longitude Course Direction KTS MPH feet Rate Location/Type
03:23PM 42.9500 -87.9000 320° Northwest 140 161 1,300  Level KMKE
03:25PM 42.9964 -87.9536 320° Northwest 222 255 5,400 3,060 Climbing Chicago Center
03:26PM 42.9350 -87.9983 208° Southwest 251 289 9,200 3,600 Climbing Chicago Center
03:27PM 42.8531 -87.9786 170° South 297 342 12,800 3,600 Climbing Chicago Center
03:28PM 42.7764 -88.0150 199° South 291 335 16,700 3,720 Climbing Chicago Center
03:29PM 42.6892 -88.0514 197° South 282 325 20,600 2,580 Climbing Chicago Center
03:30PM 42.5989 -88.0303 170° South 364 419 22,100 1,740 Climbing Chicago Center
03:31PM 42.5092 -87.9275 140° Southeast 419 482 24,300 2,460 Climbing Chicago Center
03:32PM 42.4628 -87.7425 109° East 464 534 27,200 2,580 Climbing Chicago Center
03:33PM 42.4214 -87.5772 109° East 464 534 29,700 2,220 Climbing Chicago Center
03:34PM 42.3778 -87.4103 109° East 468 539 31,900 2,040 Climbing Chicago Center
03:35PM 42.3350 -87.2442 109° East 469 540 33,900 1,560 Climbing Chicago Center
03:36PM 42.2914 -87.0769 109° East 472 543 35,200 1,260 Climbing Chicago Center
03:37PM 42.2464 -86.9039 109° East 488 562 36,600 1,500 Climbing Chicago Center
03:38PM 42.2011 -86.7328 110° East 487 560 38,400 1,620 Climbing Chicago Center
03:39PM 42.1481 -86.5319 110° East 484 557 40,000 1,140 Climbing Chicago Center
03:40PM 42.1031 -86.3628 110° East 481 554 40,800 480 Climbing Chicago Center
03:41PM 42.0556 -86.1894 110° East 492 566 41,000 60 Climbing Chicago Center
03:42PM 42.0094 -86.0153 110° East 495 570 41,000  Level Chicago Center
03:43PM 41.9619 -85.8436 110° East 492 566 41,000  Level Chicago Center
03:44PM 41.9147 -85.6711 110° East 491 565 41,000  Level Chicago Center
03:45PM 41.8681 -85.4997 110° East 487 560 41,000  Level Chicago Center
03:46PM 41.8192 -85.3242 110° East 492 566 41,000  Level Chicago Center
03:47PM 41.7703 -85.1511 111° Southeast 490 564 41,000  Level Chicago Center
03:48PM 41.7308 -85.0022 110° East 487 560 41,000  Level Cleveland Center
03:49PM 41.6811 -84.8292 111° Southeast 487 560 41,000  Level Cleveland Center
03:50PM 41.6606 -84.6525 99° East 474 545 41,000  Level Cleveland Center
03:51PM 41.6542 -84.4686 93° East 479 551 41,000  Level Cleveland Center
03:52PM 41.6456 -84.2903 94° East 485 558 41,000  Level Cleveland Center
03:53PM 41.6342 -84.1256 95° East 485 558 41,000  Level Cleveland Center
03:54PM 41.6167 -83.9442 97° East 485 558 41,000  Level Cleveland Center
03:55PM 41.5406 -83.7653 120° Southeast 484 557 41,000  Level Cleveland Center
03:56PM 41.4739 -83.6069 119° Southeast 484 557 41,000  Level Cleveland Center
03:57PM 41.4050 -83.4486 120° Southeast 489 563 41,000  Level Cleveland Center
03:58PM 41.3358 -83.2878 120° Southeast 494 568 41,000  Level Cleveland Center
03:59PM 41.2767 -83.1444 119° Southeast 499 574 41,000  Level Cleveland Center
04:00PM 41.2092 -82.9900 120° Southeast 494 568 41,000  Level Cleveland Center
04:01PM 41.1333 -82.8189 120° Southeast 494 568 41,000  Level Cleveland Center
04:02PM 41.0656 -82.6653 120° Southeast 489 563 41,000  Level Cleveland Center
04:03PM 40.9972 -82.5089 120° Southeast 489 563 41,000  Level Cleveland Center
04:04PM 40.9289 -82.3586 121° Southeast 489 563 41,000  Level Cleveland Center
04:05PM 40.8603 -82.2028 120° Southeast 489 563 41,000  Level Cleveland Center
04:06PM 40.7914 -82.0531 121° Southeast 484 557 41,000  Level Cleveland Center
04:07PM 40.7225 -81.8981 120° Southeast 484 557 41,000  Level Cleveland Center
04:08PM 40.6553 -81.7436 120° Southeast 484 557 41,000  Level Cleveland Center
04:09PM 40.5858 -81.5892 121° Southeast 484 557 41,000  Level Cleveland Center
04:10PM 40.5289 -81.4272 115° Southeast 484 557 41,000  Level Cleveland Center
04:11PM 40.4819 -81.2819 113° Southeast 479 551 41,000  Level Cleveland Center
04:12PM 40.4222 -81.1203 116° Southeast 484 557 41,000  Level Cleveland Center
04:13PM 40.3647 -80.9592 115° Southeast 484 557 41,000 -120 Level Cleveland Center
04:14PM 40.3047 -80.7956 116° Southeast 491 565 40,800 -660 Descending Cleveland Center
04:15PM 40.2486 -80.6403 115° Southeast 486 559 39,700 -1,020 Descending Cleveland Center
04:16PM 40.1881 -80.4825 117° Southeast 481 554 38,800 -1,020 Descending Cleveland Center
04:17PM 40.1231 -80.3142 117° Southeast 473 544 37,700 -900 Descending Cleveland Center
04:18PM 40.0664 -80.1600 116° Southeast 473 544 37,000 -360 Descending Cleveland Center
04:19PM 40.0136 -80.0058 114° Southeast 468 539 37,000 -2,040 Level Cleveland Center
04:20PM 39.9544 -79.8519 117° Southeast 468 539 33,000 -1,140 Descending Cleveland Center
04:21PM 39.8969 -79.6983 116° Southeast 468 539 34,800 60 Climbing Cleveland Center
04:22PM 39.8353 -79.5369 116° Southeast 474 545 33,200 -2,520 Descending Cleveland Center
04:23PM 39.7750 -79.3847 117° Southeast 487 560 30,000 -4,200 Descending Washington Center
04:24PM 39.7150 -79.2278 116° Southeast 480 552 25,000 -2,520 Descending Washington Center
04:25PM 39.6594 -79.0714 115° Southeast 480 552 25,000 -420 Level Washington Center
04:26PM 39.6239 -78.9242 107° East 470 541 24,200 -900 Descending Washington Center
04:27PM 39.5847 -78.7528 106° East 464 534 23,300 -960 Descending Washington Center
04:28PM 39.5531 -78.6086 106° East 464 534 22,400 -1,680 Descending Washington Center
04:29PM 39.5175 -78.4431 106° East 452 520 20,000 -2,280 Descending Washington Center
04:30PM 39.4872 -78.3103 106° East 432 497 17,900 -2,400 Descending Washington Center
04:31PM 39.4531 -78.1503 105° East 420 483 15,200 -1,800 Descending Washington Center
04:32PM 39.4433 -78.0236 96° East 404 465 14,400 -900 Descending Washington Center
04:33PM 39.4444 -77.8625 89° East 404 465 13,400 -1,020 Descending Washington Center
04:34PM 39.4447 -77.7200 90° East 404 465 12,400 -960 Descending Washington Center
04:35PM 39.4453 -77.5722 90° East 404 465 11,500 -660 Descending Washington Center
04:36PM 39.4453 -77.4433 90° East 381 438 11,100 -240 Descending Washington Center
04:37PM 39.4533 -77.3250 85° East 337 388 11,100 -120 Level Washington Center
04:37PM 39.4667 -77.2667 73° East 316 364 11,000 -660 Descending Potomac TRACON
04:39PM 39.4667 -77.1500 90° East 316 364 10,200 -1,080 Descending Potomac TRACON
04:40PM 39.4667 -77.0500 90° East 305 351 8,900 -1,320 Descending Potomac TRACON
04:41PM 39.4667 -76.9333 90° East 298 343 7,600 -1,380 Descending Potomac TRACON
04:42PM 39.4667 -76.8333 90° East 287 330 6,200 -1,380 Descending Potomac TRACON
04:42PM 39.4667 -76.7500 90° East 282 325 5,000 -660 Descending Potomac TRACON
04:43PM 39.4500 -76.6500 102° East 274 315 5,000 -420 Level Potomac TRACON
04:44PM 39.4000 -76.5833 134° Southeast 266 306 4,200 -540 Descending Potomac TRACON
04:45PM 39.3500 -76.5333 142° Southeast 256 295 4,000 -120 Descending Potomac TRACON
04:46PM 39.3000 -76.4667 134° Southeast 259 298 4,000 -300 Level Potomac TRACON
04:47PM 39.2333 -76.4167 150° Southeast 245 282 3,400 -780 Descending Potomac TRACON
04:48PM 39.1833 -76.4667 218° Southwest 229 264 2,500 -780 Descending Potomac TRACON
04:49PM 39.1500 -76.5167 229° Southwest 207 238 1,900 -600 Descending Potomac TRACON
04:50PM 39.1167 -76.5833 237° Southwest 192 221 1,400 -540 Descending Potomac TRACON
04:51PM 39.1333 -76.6333 293° West 144 166 900 -540 Descending Potomac TRACON
04:53PM 39.1667 -76.6667 278° West  Level FlightAware Approximate